sensor_id;sensor_type;location;lat;lon;timestamp;P1;durP1;ratioP1;P2;durP2;ratioP2
3299;SDS011;1662;49.310;8.134;2022-11-12T00:02:05;10.40;;;8.10;;
3299;SDS011;1662;49.310;8.134;2022-11-12T00:04:31;10.37;;;8.20;;
3299;SDS011;1662;49.310;8.134;2022-11-12T00:06:56;15.50;;;8.20;;
3299;SDS011;1662;49.310;8.134;2022-11-12T00:12:02;10.83;;;9.03;;
3299;SDS011;1662;49.310;8.134;2022-11-12T00:14:28;9.60;;;8.38;;
3299;SDS011;1662;49.310;8.134;2022-11-12T00:16:54;9.40;;;8.40;;
3299;SDS011;1662;49.310;8.134;2022-11-12T00:19:19;12.27;;;8.30;;
3299;SDS011;1662;49.310;8.134;2022-11-12T00:21:45;10.43;;;8.80;;
3299;SDS011;1662;49.310;8.134;2022-11-12T00:24:12;11.93;;;9.07;;
3299;SDS011;1662;49.310;8.134;2022-11-12T00:26:40;10.70;;;9.03;;
3299;SDS011;1662;49.310;8.134;2022-11-12T00:31:38;11.25;;;9.30;;
3299;SDS011;1662;49.310;8.134;2022-11-12T00:34:04;11.60;;;9.37;;
3299;SDS011;1662;49.310;8.134;2022-11-12T00:36:29;17.40;;;9.43;;
3299;SDS011;1662;49.310;8.134;2022-11-12T00:38:55;14.95;;;9.95;;
3299;SDS011;1662;49.310;8.134;2022-11-12T00:41:20;12.95;;;9.32;;
3299;SDS011;1662;49.310;8.134;2022-11-12T00:43:46;14.40;;;9.55;;
3299;SDS011;1662;49.310;8.134;2022-11-12T00:46:11;13.48;;;9.30;;
3299;SDS011;1662;49.310;8.134;2022-11-12T00:51:19;10.93;;;9.70;;
3299;SDS011;1662;49.310;8.134;2022-11-12T00:53:49;14.45;;;10.15;;
3299;SDS011;1662;49.310;8.134;2022-11-12T00:56:15;10.52;;;8.77;;
3299;SDS011;1662;49.310;8.134;2022-11-12T00:58:40;11.10;;;8.40;;
3299;SDS011;1662;49.310;8.134;2022-11-12T01:01:07;9.63;;;8.63;;
3299;SDS011;1662;49.310;8.134;2022-11-12T01:03:35;10.65;;;8.98;;
3299;SDS011;1662;49.310;8.134;2022-11-12T01:06:06;11.55;;;8.93;;
3299;SDS011;1662;49.310;8.134;2022-11-12T01:11:33;10.07;;;8.60;;
3299;SDS011;1662;49.310;8.134;2022-11-12T01:14:04;8.23;;;7.43;;
3299;SDS011;1662;49.310;8.134;2022-11-12T01:16:33;8.93;;;8.00;;
3299;SDS011;1662;49.310;8.134;2022-11-12T01:19:01;11.98;;;8.85;;
3299;SDS011;1662;49.310;8.134;2022-11-12T01:21:29;8.70;;;7.80;;
3299;SDS011;1662;49.310;8.134;2022-11-12T01:23:57;9.48;;;8.50;;
3299;SDS011;1662;49.310;8.134;2022-11-12T01:26:23;9.68;;;8.48;;
3299;SDS011;1662;49.310;8.134;2022-11-12T01:30:44;8.57;;;7.55;;
3299;SDS011;1662;49.310;8.134;2022-11-12T01:33:10;8.75;;;7.95;;
3299;SDS011;1662;49.310;8.134;2022-11-12T01:35:35;8.27;;;7.47;;
3299;SDS011;1662;49.310;8.134;2022-11-12T01:38:01;10.15;;;7.90;;
3299;SDS011;1662;49.310;8.134;2022-11-12T01:40:30;10.60;;;7.68;;
3299;SDS011;1662;49.310;8.134;2022-11-12T01:42:56;8.80;;;7.90;;
3299;SDS011;1662;49.310;8.134;2022-11-12T01:45:22;9.70;;;7.70;;
3299;SDS011;1662;49.310;8.134;2022-11-12T01:47:48;7.65;;;6.90;;
3299;SDS011;1662;49.310;8.134;2022-11-12T01:51:43;8.30;;;7.60;;
3299;SDS011;1662;49.310;8.134;2022-11-12T01:54:14;8.13;;;7.32;;
3299;SDS011;1662;49.310;8.134;2022-11-12T01:56:42;8.43;;;7.53;;
3299;SDS011;1662;49.310;8.134;2022-11-12T01:59:12;11.82;;;7.65;;
3299;SDS011;1662;49.310;8.134;2022-11-12T02:01:42;8.17;;;7.43;;
3299;SDS011;1662;49.310;8.134;2022-11-12T02:04:08;7.90;;;7.20;;
3299;SDS011;1662;49.310;8.134;2022-11-12T02:06:36;10.90;;;7.90;;
3299;SDS011;1662;49.310;8.134;2022-11-12T02:11:38;10.25;;;8.48;;
3299;SDS011;1662;49.310;8.134;2022-11-12T02:14:04;8.90;;;8.00;;
3299;SDS011;1662;49.310;8.134;2022-11-12T02:16:33;11.05;;;8.35;;
3299;SDS011;1662;49.310;8.134;2022-11-12T02:19:04;9.90;;;8.60;;
3299;SDS011;1662;49.310;8.134;2022-11-12T02:21:32;11.07;;;9.95;;
3299;SDS011;1662;49.310;8.134;2022-11-12T02:24:02;10.73;;;9.23;;
3299;SDS011;1662;49.310;8.134;2022-11-12T02:26:29;10.43;;;9.32;;
3299;SDS011;1662;49.310;8.134;2022-11-12T02:31:37;10.80;;;9.70;;
3299;SDS011;1662;49.310;8.134;2022-11-12T02:34:05;11.82;;;10.10;;
3299;SDS011;1662;49.310;8.134;2022-11-12T02:36:31;11.80;;;10.35;;
3299;SDS011;1662;49.310;8.134;2022-11-12T02:38:57;12.10;;;10.80;;
3299;SDS011;1662;49.310;8.134;2022-11-12T02:41:25;12.98;;;11.50;;
3299;SDS011;1662;49.310;8.134;2022-11-12T02:43:50;10.25;;;9.23;;
3299;SDS011;1662;49.310;8.134;2022-11-12T02:46:16;12.32;;;10.80;;
3299;SDS011;1662;49.310;8.134;2022-11-12T02:51:51;12.95;;;11.55;;
3299;SDS011;1662;49.310;8.134;2022-11-12T02:54:16;12.30;;;10.93;;
3299;SDS011;1662;49.310;8.134;2022-11-12T02:56:42;12.90;;;11.60;;
3299;SDS011;1662;49.310;8.134;2022-11-12T02:59:07;11.30;;;10.10;;
3299;SDS011;1662;49.310;8.134;2022-11-12T03:01:33;10.30;;;9.30;;
3299;SDS011;1662;49.310;8.134;2022-11-12T03:03:58;11.73;;;9.50;;
3299;SDS011;1662;49.310;8.134;2022-11-12T03:06:27;12.38;;;10.70;;
3299;SDS011;1662;49.310;8.134;2022-11-12T03:11:32;11.70;;;9.75;;
3299;SDS011;1662;49.310;8.134;2022-11-12T03:13:57;15.07;;;10.20;;
3299;SDS011;1662;49.310;8.134;2022-11-12T03:16:23;14.20;;;9.80;;
3299;SDS011;1662;49.310;8.134;2022-11-12T03:18:49;11.10;;;9.50;;
3299;SDS011;1662;49.310;8.134;2022-11-12T03:21:14;12.88;;;9.63;;
3299;SDS011;1662;49.310;8.134;2022-11-12T03:23:40;11.85;;;10.40;;
3299;SDS011;1662;49.310;8.134;2022-11-12T03:26:05;12.70;;;10.43;;
3299;SDS011;1662;49.310;8.134;2022-11-12T03:30:43;12.13;;;10.50;;
3299;SDS011;1662;49.310;8.134;2022-11-12T03:33:10;12.25;;;10.57;;
3299;SDS011;1662;49.310;8.134;2022-11-12T03:35:37;11.55;;;9.50;;
3299;SDS011;1662;49.310;8.134;2022-11-12T03:38:05;11.15;;;9.80;;
3299;SDS011;1662;49.310;8.134;2022-11-12T03:40:31;13.05;;;10.10;;
3299;SDS011;1662;49.310;8.134;2022-11-12T03:42:59;13.65;;;10.70;;
3299;SDS011;1662;49.310;8.134;2022-11-12T03:45:26;13.80;;;10.77;;
3299;SDS011;1662;49.310;8.134;2022-11-12T03:49:54;11.00;;;9.80;;
3299;SDS011;1662;49.310;8.134;2022-11-12T03:52:19;10.88;;;9.77;;
3299;SDS011;1662;49.310;8.134;2022-11-12T03:54:47;11.15;;;9.43;;
3299;SDS011;1662;49.310;8.134;2022-11-12T03:57:13;11.63;;;10.13;;
3299;SDS011;1662;49.310;8.134;2022-11-12T03:59:38;11.40;;;10.20;;
3299;SDS011;1662;49.310;8.134;2022-11-12T04:02:04;12.00;;;10.60;;
3299;SDS011;1662;49.310;8.134;2022-11-12T04:04:29;11.23;;;9.77;;
3299;SDS011;1662;49.310;8.134;2022-11-12T04:09:21;11.10;;;10.00;;
3299;SDS011;1662;49.310;8.134;2022-11-12T04:11:46;10.70;;;9.60;;
3299;SDS011;1662;49.310;8.134;2022-11-12T04:14:12;12.57;;;9.90;;
3299;SDS011;1662;49.310;8.134;2022-11-12T04:16:37;10.57;;;9.47;;
3299;SDS011;1662;49.310;8.134;2022-11-12T04:19:21;10.10;;;9.00;;
3299;SDS011;1662;49.310;8.134;2022-11-12T04:22:06;9.90;;;8.90;;
3299;SDS011;1662;49.310;8.134;2022-11-12T04:24:34;10.10;;;9.05;;
3299;SDS011;1662;49.310;8.134;2022-11-12T04:29:04;9.10;;;8.20;;
3299;SDS011;1662;49.310;8.134;2022-11-12T04:32:05;9.50;;;8.63;;
3299;SDS011;1662;49.310;8.134;2022-11-12T04:34:31;9.50;;;8.50;;
3299;SDS011;1662;49.310;8.134;2022-11-12T04:36:58;9.10;;;8.20;;
3299;SDS011;1662;49.310;8.134;2022-11-12T04:39:23;9.05;;;8.15;;
3299;SDS011;1662;49.310;8.134;2022-11-12T04:41:49;9.73;;;8.73;;
3299;SDS011;1662;49.310;8.134;2022-11-12T04:44:33;8.80;;;7.90;;
3299;SDS011;1662;49.310;8.134;2022-11-12T04:49:32;11.20;;;8.52;;
3299;SDS011;1662;49.310;8.134;2022-11-12T04:51:57;10.95;;;9.20;;
3299;SDS011;1662;49.310;8.134;2022-11-12T04:54:29;10.38;;;9.38;;
3299;SDS011;1662;49.310;8.134;2022-11-12T04:56:57;11.93;;;9.55;;
3299;SDS011;1662;49.310;8.134;2022-11-12T04:59:23;10.30;;;9.30;;
3299;SDS011;1662;49.310;8.134;2022-11-12T05:01:48;10.40;;;9.17;;
3299;SDS011;1662;49.310;8.134;2022-11-12T05:04:14;12.20;;;10.03;;
3299;SDS011;1662;49.310;8.134;2022-11-12T05:09:29;11.43;;;9.90;;
3299;SDS011;1662;49.310;8.134;2022-11-12T05:11:55;12.13;;;9.97;;
3299;SDS011;1662;49.310;8.134;2022-11-12T05:14:21;11.50;;;10.07;;
3299;SDS011;1662;49.310;8.134;2022-11-12T05:16:49;12.77;;;10.30;;
3299;SDS011;1662;49.310;8.134;2022-11-12T05:19:15;11.75;;;9.90;;
3299;SDS011;1662;49.310;8.134;2022-11-12T05:21:41;13.75;;;10.70;;
3299;SDS011;1662;49.310;8.134;2022-11-12T05:24:25;14.82;;;11.65;;
3299;SDS011;1662;49.310;8.134;2022-11-12T05:29:12;11.98;;;10.40;;
3299;SDS011;1662;49.310;8.134;2022-11-12T05:31:38;13.43;;;10.50;;
3299;SDS011;1662;49.310;8.134;2022-11-12T05:34:06;13.38;;;10.50;;
3299;SDS011;1662;49.310;8.134;2022-11-12T05:36:32;12.35;;;10.57;;
3299;SDS011;1662;49.310;8.134;2022-11-12T05:38:58;13.05;;;11.13;;
3299;SDS011;1662;49.310;8.134;2022-11-12T05:41:24;16.35;;;11.80;;
3299;SDS011;1662;49.310;8.134;2022-11-12T05:43:49;15.77;;;11.88;;
3299;SDS011;1662;49.310;8.134;2022-11-12T05:49:10;16.52;;;11.77;;
3299;SDS011;1662;49.310;8.134;2022-11-12T05:51:38;13.88;;;11.30;;
3299;SDS011;1662;49.310;8.134;2022-11-12T05:54:04;14.30;;;10.45;;
3299;SDS011;1662;49.310;8.134;2022-11-12T05:56:30;15.30;;;11.13;;
3299;SDS011;1662;49.310;8.134;2022-11-12T05:58:56;13.40;;;10.73;;
3299;SDS011;1662;49.310;8.134;2022-11-12T06:01:24;14.18;;;10.68;;
3299;SDS011;1662;49.310;8.134;2022-11-12T06:03:50;14.43;;;11.10;;
3299;SDS011;1662;49.310;8.134;2022-11-12T06:06:15;18.23;;;12.57;;
3299;SDS011;1662;49.310;8.134;2022-11-12T06:08:41;19.60;;;13.20;;
3299;SDS011;1662;49.310;8.134;2022-11-12T06:11:06;18.40;;;13.43;;
3299;SDS011;1662;49.310;8.134;2022-11-12T06:13:34;18.63;;;13.25;;
3299;SDS011;1662;49.310;8.134;2022-11-12T06:16:00;18.30;;;12.50;;
3299;SDS011;1662;49.310;8.134;2022-11-12T06:18:25;17.53;;;13.33;;
3299;SDS011;1662;49.310;8.134;2022-11-12T06:20:51;14.93;;;11.07;;
3299;SDS011;1662;49.310;8.134;2022-11-12T06:23:35;16.27;;;11.50;;
3299;SDS011;1662;49.310;8.134;2022-11-12T06:26:01;16.77;;;11.77;;
3299;SDS011;1662;49.310;8.134;2022-11-12T06:28:27;18.37;;;13.20;;
3299;SDS011;1662;49.310;8.134;2022-11-12T06:30:56;17.02;;;12.30;;
3299;SDS011;1662;49.310;8.134;2022-11-12T06:33:21;18.85;;;12.43;;
3299;SDS011;1662;49.310;8.134;2022-11-12T06:35:47;18.03;;;12.40;;
3299;SDS011;1662;49.310;8.134;2022-11-12T06:38:21;19.90;;;12.97;;
3299;SDS011;1662;49.310;8.134;2022-11-12T06:40:46;17.07;;;12.23;;
3299;SDS011;1662;49.310;8.134;2022-11-12T06:43:12;18.20;;;12.50;;
3299;SDS011;1662;49.310;8.134;2022-11-12T06:45:37;18.67;;;12.80;;
3299;SDS011;1662;49.310;8.134;2022-11-12T06:48:03;17.70;;;12.97;;
3299;SDS011;1662;49.310;8.134;2022-11-12T06:50:29;17.47;;;12.53;;
3299;SDS011;1662;49.310;8.134;2022-11-12T06:52:57;17.10;;;13.00;;
3299;SDS011;1662;49.310;8.134;2022-11-12T06:55:23;16.98;;;12.65;;
3299;SDS011;1662;49.310;8.134;2022-11-12T06:57:54;15.37;;;11.93;;
3299;SDS011;1662;49.310;8.134;2022-11-12T07:00:20;15.00;;;12.47;;
3299;SDS011;1662;49.310;8.134;2022-11-12T07:02:47;16.30;;;12.57;;
3299;SDS011;1662;49.310;8.134;2022-11-12T07:05:13;16.65;;;12.02;;
3299;SDS011;1662;49.310;8.134;2022-11-12T07:07:39;15.98;;;12.30;;
3299;SDS011;1662;49.310;8.134;2022-11-12T07:10:05;18.95;;;12.75;;
3299;SDS011;1662;49.310;8.134;2022-11-12T07:12:31;19.20;;;13.10;;
3299;SDS011;1662;49.310;8.134;2022-11-12T07:14:57;20.70;;;13.15;;
3299;SDS011;1662;49.310;8.134;2022-11-12T07:17:22;17.65;;;13.25;;
3299;SDS011;1662;49.310;8.134;2022-11-12T07:19:48;18.30;;;13.32;;
3299;SDS011;1662;49.310;8.134;2022-11-12T07:22:14;21.15;;;14.48;;
3299;SDS011;1662;49.310;8.134;2022-11-12T07:24:39;18.35;;;13.35;;
3299;SDS011;1662;49.310;8.134;2022-11-12T07:27:05;16.50;;;12.57;;
3299;SDS011;1662;49.310;8.134;2022-11-12T07:29:30;18.63;;;13.00;;
3299;SDS011;1662;49.310;8.134;2022-11-12T07:31:59;21.55;;;14.55;;
3299;SDS011;1662;49.310;8.134;2022-11-12T07:34:24;19.38;;;14.00;;
3299;SDS011;1662;49.310;8.134;2022-11-12T07:36:52;20.33;;;13.67;;
3299;SDS011;1662;49.310;8.134;2022-11-12T07:39:20;19.23;;;13.90;;
3299;SDS011;1662;49.310;8.134;2022-11-12T07:41:51;19.50;;;14.50;;
3299;SDS011;1662;49.310;8.134;2022-11-12T07:44:16;20.33;;;14.73;;
3299;SDS011;1662;49.310;8.134;2022-11-12T07:46:42;20.75;;;14.25;;
3299;SDS011;1662;49.310;8.134;2022-11-12T07:49:07;18.95;;;14.40;;
3299;SDS011;1662;49.310;8.134;2022-11-12T07:51:33;18.13;;;14.00;;
3299;SDS011;1662;49.310;8.134;2022-11-12T07:53:58;17.93;;;14.70;;
3299;SDS011;1662;49.310;8.134;2022-11-12T07:56:25;20.83;;;14.15;;
3299;SDS011;1662;49.310;8.134;2022-11-12T07:58:51;20.98;;;15.15;;
3299;SDS011;1662;49.310;8.134;2022-11-12T08:03:57;16.02;;;10.57;;
3299;SDS011;1662;49.310;8.134;2022-11-12T08:06:26;9.27;;;7.03;;
3299;SDS011;1662;49.310;8.134;2022-11-12T08:08:53;14.38;;;11.40;;
3299;SDS011;1662;49.310;8.134;2022-11-12T08:13:38;14.35;;;11.65;;
3299;SDS011;1662;49.310;8.134;2022-11-12T08:16:03;19.30;;;15.37;;
3299;SDS011;1662;49.310;8.134;2022-11-12T08:18:29;17.00;;;13.23;;
3299;SDS011;1662;49.310;8.134;2022-11-12T08:20:59;21.05;;;15.40;;
3299;SDS011;1662;49.310;8.134;2022-11-12T08:23:26;18.70;;;14.40;;
3299;SDS011;1662;49.310;8.134;2022-11-12T08:25:51;18.10;;;14.30;;
3299;SDS011;1662;49.310;8.134;2022-11-12T08:28:21;21.20;;;16.13;;
3299;SDS011;1662;49.310;8.134;2022-11-12T08:33:19;20.60;;;14.90;;
3299;SDS011;1662;49.310;8.134;2022-11-12T08:35:47;22.17;;;15.57;;
3299;SDS011;1662;49.310;8.134;2022-11-12T08:38:14;21.45;;;15.65;;
3299;SDS011;1662;49.310;8.134;2022-11-12T08:40:40;18.73;;;14.55;;
3299;SDS011;1662;49.310;8.134;2022-11-12T08:43:06;21.88;;;16.25;;
3299;SDS011;1662;49.310;8.134;2022-11-12T08:45:37;19.90;;;15.60;;
3299;SDS011;1662;49.310;8.134;2022-11-12T08:48:05;18.83;;;15.13;;
3299;SDS011;1662;49.310;8.134;2022-11-12T08:51:16;22.77;;;16.67;;
3299;SDS011;1662;49.310;8.134;2022-11-12T08:53:42;21.95;;;16.77;;
3299;SDS011;1662;49.310;8.134;2022-11-12T08:56:08;18.30;;;14.88;;
3299;SDS011;1662;49.310;8.134;2022-11-12T08:58:33;18.80;;;14.57;;
3299;SDS011;1662;49.310;8.134;2022-11-12T09:01:03;18.93;;;15.57;;
3299;SDS011;1662;49.310;8.134;2022-11-12T09:03:32;24.02;;;17.45;;
3299;SDS011;1662;49.310;8.134;2022-11-12T09:06:00;20.95;;;16.38;;
3299;SDS011;1662;49.310;8.134;2022-11-12T09:09:42;19.60;;;16.27;;
3299;SDS011;1662;49.310;8.134;2022-11-12T09:12:08;18.90;;;15.30;;
3299;SDS011;1662;49.310;8.134;2022-11-12T09:14:42;24.70;;;16.38;;
3299;SDS011;1662;49.310;8.134;2022-11-12T09:17:08;21.30;;;15.03;;
3299;SDS011;1662;49.310;8.134;2022-11-12T09:19:36;23.50;;;17.40;;
3299;SDS011;1662;49.310;8.134;2022-11-12T09:22:02;20.40;;;16.30;;
3299;SDS011;1662;49.310;8.134;2022-11-12T09:24:28;26.38;;;19.02;;
3299;SDS011;1662;49.310;8.134;2022-11-12T09:28:53;28.35;;;20.00;;
3299;SDS011;1662;49.310;8.134;2022-11-12T09:31:19;20.80;;;15.67;;
3299;SDS011;1662;49.310;8.134;2022-11-12T09:33:45;16.58;;;13.18;;
3299;SDS011;1662;49.310;8.134;2022-11-12T09:36:10;12.90;;;10.77;;
3299;SDS011;1662;49.310;8.134;2022-11-12T09:38:36;11.00;;;9.55;;
3299;SDS011;1662;49.310;8.134;2022-11-12T09:43:34;18.98;;;16.70;;
3299;SDS011;1662;49.310;8.134;2022-11-12T09:46:08;19.70;;;16.63;;
3299;SDS011;1662;49.310;8.134;2022-11-12T09:49:21;21.63;;;17.10;;
3299;SDS011;1662;49.310;8.134;2022-11-12T09:51:53;21.10;;;17.95;;
3299;SDS011;1662;49.310;8.134;2022-11-12T09:54:25;22.65;;;18.20;;
3299;SDS011;1662;49.310;8.134;2022-11-12T09:56:55;22.73;;;18.42;;
3299;SDS011;1662;49.310;8.134;2022-11-12T09:59:21;20.60;;;17.83;;
3299;SDS011;1662;49.310;8.134;2022-11-12T10:01:51;21.05;;;18.20;;
3299;SDS011;1662;49.310;8.134;2022-11-12T10:04:39;24.58;;;19.73;;
3299;SDS011;1662;49.310;8.134;2022-11-12T10:08:38;22.70;;;18.63;;
3299;SDS011;1662;49.310;8.134;2022-11-12T10:14:53;22.73;;;19.83;;
3299;SDS011;1662;49.310;8.134;2022-11-12T10:20:31;25.42;;;20.00;;
3299;SDS011;1662;49.310;8.134;2022-11-12T10:25:44;26.15;;;19.27;;
3299;SDS011;1662;49.310;8.134;2022-11-12T10:31:04;25.43;;;19.83;;
3299;SDS011;1662;49.310;8.134;2022-11-12T10:33:39;25.75;;;20.48;;
3299;SDS011;1662;49.310;8.134;2022-11-12T10:36:11;14.68;;;12.85;;
3299;SDS011;1662;49.310;8.134;2022-11-12T10:38:44;13.45;;;12.05;;
3299;SDS011;1662;49.310;8.134;2022-11-12T10:41:32;12.50;;;10.10;;
3299;SDS011;1662;49.310;8.134;2022-11-12T10:44:54;13.80;;;12.50;;
3299;SDS011;1662;49.310;8.134;2022-11-12T10:47:43;18.00;;;16.10;;
3299;SDS011;1662;49.310;8.134;2022-11-12T10:53:05;16.73;;;14.90;;
3299;SDS011;1662;49.310;8.134;2022-11-12T10:55:37;18.10;;;16.30;;
3299;SDS011;1662;49.310;8.134;2022-11-12T10:58:18;20.75;;;18.42;;
3299;SDS011;1662;49.310;8.134;2022-11-12T11:03:14;20.13;;;17.70;;
3299;SDS011;1662;49.310;8.134;2022-11-12T11:08:13;20.45;;;18.33;;
3299;SDS011;1662;49.310;8.134;2022-11-12T11:11:23;21.00;;;18.10;;
3299;SDS011;1662;49.310;8.134;2022-11-12T11:13:54;21.60;;;18.10;;
3299;SDS011;1662;49.310;8.134;2022-11-12T11:16:23;21.80;;;19.50;;
3299;SDS011;1662;49.310;8.134;2022-11-12T11:18:51;26.85;;;23.90;;
3299;SDS011;1662;49.310;8.134;2022-11-12T11:23:22;20.15;;;17.95;;
3299;SDS011;1662;49.310;8.134;2022-11-12T11:26:05;23.42;;;19.65;;
3299;SDS011;1662;49.310;8.134;2022-11-12T11:29:16;27.55;;;24.65;;
3299;SDS011;1662;49.310;8.134;2022-11-12T11:39:34;22.35;;;19.52;;
3299;SDS011;1662;49.310;8.134;2022-11-12T11:45:54;24.60;;;19.95;;
3299;SDS011;1662;49.310;8.134;2022-11-12T11:57:15;23.00;;;20.20;;
3299;SDS011;1662;49.310;8.134;2022-11-12T12:02:24;29.40;;;23.40;;
3299;SDS011;1662;49.310;8.134;2022-11-12T12:05:57;23.73;;;20.03;;
3299;SDS011;1662;49.310;8.134;2022-11-12T12:10:55;25.20;;;22.07;;
3299;SDS011;1662;49.310;8.134;2022-11-12T12:22:16;119.50;;;65.30;;
3299;SDS011;1662;49.310;8.134;2022-11-12T12:27:15;30.40;;;23.42;;
3299;SDS011;1662;49.310;8.134;2022-11-12T12:29:48;30.98;;;22.73;;
3299;SDS011;1662;49.310;8.134;2022-11-12T12:32:42;32.93;;;24.07;;
3299;SDS011;1662;49.310;8.134;2022-11-12T12:35:30;19.30;;;15.05;;
3299;SDS011;1662;49.310;8.134;2022-11-12T12:41:02;21.15;;;14.80;;
3299;SDS011;1662;49.310;8.134;2022-11-12T12:46:01;18.10;;;15.40;;
3299;SDS011;1662;49.310;8.134;2022-11-12T12:50:59;23.98;;;18.27;;
3299;SDS011;1662;49.310;8.134;2022-11-12T12:57:57;22.58;;;18.80;;
3299;SDS011;1662;49.310;8.134;2022-11-12T13:03:04;23.30;;;18.40;;
3299;SDS011;1662;49.310;8.134;2022-11-12T13:05:34;27.73;;;21.10;;
3299;SDS011;1662;49.310;8.134;2022-11-12T13:08:13;27.23;;;19.83;;
3299;SDS011;1662;49.310;8.134;2022-11-12T13:10:46;26.83;;;21.27;;
3299;SDS011;1662;49.310;8.134;2022-11-12T13:22:42;22.23;;;16.63;;
3299;SDS011;1662;49.310;8.134;2022-11-12T13:37:03;28.70;;;18.03;;
3299;SDS011;1662;49.310;8.134;2022-11-12T13:39:34;27.87;;;21.40;;
3299;SDS011;1662;49.310;8.134;2022-11-12T13:42:01;26.80;;;19.43;;
3299;SDS011;1662;49.310;8.134;2022-11-12T13:44:55;24.37;;;17.83;;
3299;SDS011;1662;49.310;8.134;2022-11-12T13:47:24;28.00;;;18.47;;
3299;SDS011;1662;49.310;8.134;2022-11-12T13:49:53;24.13;;;18.73;;
3299;SDS011;1662;49.310;8.134;2022-11-12T13:55:05;22.37;;;16.40;;
3299;SDS011;1662;49.310;8.134;2022-11-12T13:57:40;23.13;;;18.53;;
3299;SDS011;1662;49.310;8.134;2022-11-12T14:00:07;28.00;;;19.13;;
3299;SDS011;1662;49.310;8.134;2022-11-12T14:02:47;24.93;;;17.53;;
3299;SDS011;1662;49.310;8.134;2022-11-12T14:05:17;29.10;;;17.80;;
3299;SDS011;1662;49.310;8.134;2022-11-12T14:07:48;27.47;;;16.63;;
3299;SDS011;1662;49.310;8.134;2022-11-12T14:14:34;25.90;;;16.50;;
3299;SDS011;1662;49.310;8.134;2022-11-12T14:22:38;47.20;;;29.97;;
3299;SDS011;1662;49.310;8.134;2022-11-12T14:25:19;32.17;;;21.70;;
3299;SDS011;1662;49.310;8.134;2022-11-12T14:27:50;26.37;;;19.73;;
3299;SDS011;1662;49.310;8.134;2022-11-12T14:30:23;31.47;;;21.60;;
3299;SDS011;1662;49.310;8.134;2022-11-12T14:33:22;36.67;;;24.97;;
3299;SDS011;1662;49.310;8.134;2022-11-12T14:35:50;31.83;;;22.07;;
3299;SDS011;1662;49.310;8.134;2022-11-12T14:38:24;33.03;;;20.40;;
3299;SDS011;1662;49.310;8.134;2022-11-12T14:40:55;39.87;;;25.20;;
3299;SDS011;1662;49.310;8.134;2022-11-12T14:43:35;27.77;;;20.20;;
3299;SDS011;1662;49.310;8.134;2022-11-12T14:46:07;34.23;;;22.90;;
3299;SDS011;1662;49.310;8.134;2022-11-12T14:52:11;38.07;;;23.60;;
3299;SDS011;1662;49.310;8.134;2022-11-12T14:54:51;28.13;;;19.77;;
3299;SDS011;1662;49.310;8.134;2022-11-12T14:57:24;23.93;;;16.93;;
3299;SDS011;1662;49.310;8.134;2022-11-12T14:59:51;36.47;;;21.70;;
3299;SDS011;1662;49.310;8.134;2022-11-12T15:02:27;33.77;;;20.00;;
3299;SDS011;1662;49.310;8.134;2022-11-12T15:05:16;30.90;;;20.43;;
3299;SDS011;1662;49.310;8.134;2022-11-12T15:12:44;30.23;;;22.00;;
3299;SDS011;1662;49.310;8.134;2022-11-12T15:15:16;29.87;;;21.00;;
3299;SDS011;1662;49.310;8.134;2022-11-12T15:17:46;28.50;;;19.80;;
3299;SDS011;1662;49.310;8.134;2022-11-12T15:20:19;27.77;;;19.10;;
3299;SDS011;1662;49.310;8.134;2022-11-12T15:22:48;27.73;;;17.97;;
3299;SDS011;1662;49.310;8.134;2022-11-12T15:27:46;29.17;;;20.27;;
3299;SDS011;1662;49.310;8.134;2022-11-12T15:37:06;52.17;;;33.30;;
3299;SDS011;1662;49.310;8.134;2022-11-12T15:39:53;29.10;;;20.87;;
3299;SDS011;1662;49.310;8.134;2022-11-12T15:42:30;32.20;;;20.17;;
3299;SDS011;1662;49.310;8.134;2022-11-12T15:45:01;30.20;;;23.70;;
3299;SDS011;1662;49.310;8.134;2022-11-12T15:47:33;35.07;;;23.10;;
3299;SDS011;1662;49.310;8.134;2022-11-12T15:52:08;30.27;;;21.90;;
3299;SDS011;1662;49.310;8.134;2022-11-12T15:54:34;30.27;;;20.73;;
3299;SDS011;1662;49.310;8.134;2022-11-12T15:57:00;29.53;;;22.37;;
3299;SDS011;1662;49.310;8.134;2022-11-12T15:59:25;26.93;;;17.67;;
3299;SDS011;1662;49.310;8.134;2022-11-12T16:01:51;29.73;;;20.70;;
3299;SDS011;1662;49.310;8.134;2022-11-12T16:04:20;28.50;;;18.70;;
3299;SDS011;1662;49.310;8.134;2022-11-12T16:06:45;32.87;;;20.50;;
3299;SDS011;1662;49.310;8.134;2022-11-12T16:12:04;32.10;;;21.10;;
3299;SDS011;1662;49.310;8.134;2022-11-12T16:14:29;27.00;;;20.63;;
3299;SDS011;1662;49.310;8.134;2022-11-12T16:16:57;27.43;;;19.03;;
3299;SDS011;1662;49.310;8.134;2022-11-12T16:19:23;32.00;;;21.87;;
3299;SDS011;1662;49.310;8.134;2022-11-12T16:21:50;29.57;;;22.30;;
3299;SDS011;1662;49.310;8.134;2022-11-12T16:24:15;34.83;;;22.10;;
3299;SDS011;1662;49.310;8.134;2022-11-12T16:26:41;28.47;;;21.50;;
3299;SDS011;1662;49.310;8.134;2022-11-12T16:31:15;33.87;;;20.20;;
3299;SDS011;1662;49.310;8.134;2022-11-12T16:33:40;28.77;;;21.10;;
3299;SDS011;1662;49.310;8.134;2022-11-12T16:36:13;28.10;;;19.70;;
3299;SDS011;1662;49.310;8.134;2022-11-12T16:38:39;62.53;;;36.93;;
3299;SDS011;1662;49.310;8.134;2022-11-12T16:41:07;48.83;;;32.57;;
3299;SDS011;1662;49.310;8.134;2022-11-12T16:43:34;27.50;;;21.90;;
3299;SDS011;1662;49.310;8.134;2022-11-12T16:46:00;31.23;;;23.33;;
3299;SDS011;1662;49.310;8.134;2022-11-12T16:51:02;26.13;;;19.40;;
3299;SDS011;1662;49.310;8.134;2022-11-12T16:53:28;31.10;;;20.60;;
3299;SDS011;1662;49.310;8.134;2022-11-12T16:55:55;32.40;;;19.80;;
3299;SDS011;1662;49.310;8.134;2022-11-12T16:58:21;32.03;;;22.10;;
3299;SDS011;1662;49.310;8.134;2022-11-12T17:00:48;33.13;;;21.40;;
3299;SDS011;1662;49.310;8.134;2022-11-12T17:03:17;27.67;;;20.07;;
3299;SDS011;1662;49.310;8.134;2022-11-12T17:05:43;28.37;;;19.30;;
3299;SDS011;1662;49.310;8.134;2022-11-12T17:10:54;33.77;;;21.23;;
3299;SDS011;1662;49.310;8.134;2022-11-12T17:13:20;26.70;;;18.87;;
3299;SDS011;1662;49.310;8.134;2022-11-12T17:15:46;35.80;;;24.03;;
3299;SDS011;1662;49.310;8.134;2022-11-12T17:18:11;34.10;;;22.90;;
3299;SDS011;1662;49.310;8.134;2022-11-12T17:20:37;31.00;;;21.03;;
3299;SDS011;1662;49.310;8.134;2022-11-12T17:23:03;35.10;;;23.57;;
3299;SDS011;1662;49.310;8.134;2022-11-12T17:25:28;41.60;;;26.27;;
3299;SDS011;1662;49.310;8.134;2022-11-12T17:30:32;64.87;;;36.17;;
3299;SDS011;1662;49.310;8.134;2022-11-12T17:32:58;53.47;;;33.43;;
3299;SDS011;1662;49.310;8.134;2022-11-12T17:35:24;58.77;;;32.93;;
3299;SDS011;1662;49.310;8.134;2022-11-12T17:37:49;77.10;;;43.60;;
3299;SDS011;1662;49.310;8.134;2022-11-12T17:40:17;35.40;;;24.20;;
3299;SDS011;1662;49.310;8.134;2022-11-12T17:42:50;39.20;;;24.80;;
3299;SDS011;1662;49.310;8.134;2022-11-12T17:45:16;39.03;;;26.50;;
3299;SDS011;1662;49.310;8.134;2022-11-12T17:50:23;48.17;;;32.00;;
3299;SDS011;1662;49.310;8.134;2022-11-12T17:52:48;45.10;;;30.10;;
3299;SDS011;1662;49.310;8.134;2022-11-12T17:55:14;39.30;;;27.43;;
3299;SDS011;1662;49.310;8.134;2022-11-12T17:57:39;43.27;;;28.23;;
3299;SDS011;1662;49.310;8.134;2022-11-12T18:00:05;40.57;;;26.80;;
3299;SDS011;1662;49.310;8.134;2022-11-12T18:02:31;33.90;;;23.37;;
3299;SDS011;1662;49.310;8.134;2022-11-12T18:04:57;36.20;;;24.00;;
3299;SDS011;1662;49.310;8.134;2022-11-12T18:10:17;42.53;;;25.90;;
3299;SDS011;1662;49.310;8.134;2022-11-12T18:12:45;44.30;;;26.70;;
3299;SDS011;1662;49.310;8.134;2022-11-12T18:15:11;36.87;;;25.57;;
3299;SDS011;1662;49.310;8.134;2022-11-12T18:17:37;40.03;;;23.43;;
3299;SDS011;1662;49.310;8.134;2022-11-12T18:20:03;39.50;;;25.20;;
3299;SDS011;1662;49.310;8.134;2022-11-12T18:22:29;44.17;;;26.27;;
3299;SDS011;1662;49.310;8.134;2022-11-12T18:24:54;44.33;;;27.23;;
3299;SDS011;1662;49.310;8.134;2022-11-12T18:28:43;43.50;;;26.70;;
3299;SDS011;1662;49.310;8.134;2022-11-12T18:31:14;43.90;;;27.77;;
3299;SDS011;1662;49.310;8.134;2022-11-12T18:33:41;46.13;;;28.30;;